sensor_id;sensor_type;location;lat;lon;timestamp;P1;durP1;ratioP1;P2;durP2;ratioP2
72856;SDS011;62742;52.136;4.500;2023-07-29T00:01:49;8.77;;;1.90;;
72856;SDS011;62742;52.136;4.500;2023-07-29T00:04:15;9.00;;;2.00;;
72856;SDS011;62742;52.136;4.500;2023-07-29T00:06:42;7.35;;;2.00;;
72856;SDS011;62742;52.136;4.500;2023-07-29T00:09:08;7.25;;;2.10;;
72856;SDS011;62742;52.136;4.500;2023-07-29T00:11:35;7.50;;;2.00;;
72856;SDS011;62742;52.136;4.500;2023-07-29T00:14:01;5.25;;;1.67;;
72856;SDS011;62742;52.136;4.500;2023-07-29T00:16:28;9.50;;;2.13;;
72856;SDS011;62742;52.136;4.500;2023-07-29T00:18:55;8.18;;;2.20;;
72856;SDS011;62742;52.136;4.500;2023-07-29T00:21:21;6.05;;;1.75;;
72856;SDS011;62742;52.136;4.500;2023-07-29T00:23:48;7.20;;;1.98;;
72856;SDS011;62742;52.136;4.500;2023-07-29T00:26:14;8.25;;;2.05;;
72856;SDS011;62742;52.136;4.500;2023-07-29T00:28:41;7.25;;;1.90;;
72856;SDS011;62742;52.136;4.500;2023-07-29T00:31:07;5.80;;;1.67;;
72856;SDS011;62742;52.136;4.500;2023-07-29T00:33:34;9.40;;;2.10;;
72856;SDS011;62742;52.136;4.500;2023-07-29T00:36:00;4.90;;;2.20;;
72856;SDS011;62742;52.136;4.500;2023-07-29T00:38:28;6.82;;;2.00;;
72856;SDS011;62742;52.136;4.500;2023-07-29T00:40:57;7.50;;;1.77;;
72856;SDS011;62742;52.136;4.500;2023-07-29T00:43:25;6.07;;;2.03;;
72856;SDS011;62742;52.136;4.500;2023-07-29T00:45:51;6.05;;;1.70;;
72856;SDS011;62742;52.136;4.500;2023-07-29T00:48:18;5.03;;;1.63;;
72856;SDS011;62742;52.136;4.500;2023-07-29T00:50:46;6.43;;;1.80;;
72856;SDS011;62742;52.136;4.500;2023-07-29T00:53:12;3.47;;;1.58;;
72856;SDS011;62742;52.136;4.500;2023-07-29T00:55:39;4.50;;;1.67;;
72856;SDS011;62742;52.136;4.500;2023-07-29T00:58:06;4.43;;;1.67;;
72856;SDS011;62742;52.136;4.500;2023-07-29T01:00:33;4.85;;;1.80;;
72856;SDS011;62742;52.136;4.500;2023-07-29T01:03:00;4.28;;;1.70;;
72856;SDS011;62742;52.136;4.500;2023-07-29T01:05:28;4.35;;;1.67;;
72856;SDS011;62742;52.136;4.500;2023-07-29T01:08:06;3.55;;;1.77;;
72856;SDS011;62742;52.136;4.500;2023-07-29T01:13:55;4.35;;;1.90;;
72856;SDS011;62742;52.136;4.500;2023-07-29T01:19:42;3.97;;;1.88;;
72856;SDS011;62742;52.136;4.500;2023-07-29T01:22:35;7.13;;;2.40;;
72856;SDS011;62742;52.136;4.500;2023-07-29T01:25:03;4.93;;;1.85;;
72856;SDS011;62742;52.136;4.500;2023-07-29T01:27:30;6.32;;;2.33;;
72856;SDS011;62742;52.136;4.500;2023-07-29T01:29:57;8.63;;;2.42;;
72856;SDS011;62742;52.136;4.500;2023-07-29T01:38:13;6.78;;;2.63;;
72856;SDS011;62742;52.136;4.500;2023-07-29T01:41:10;7.57;;;2.83;;
72856;SDS011;62742;52.136;4.500;2023-07-29T01:43:37;6.70;;;2.80;;
72856;SDS011;62742;52.136;4.500;2023-07-29T01:46:09;7.20;;;2.67;;
72856;SDS011;62742;52.136;4.500;2023-07-29T01:48:40;5.63;;;2.53;;
72856;SDS011;62742;52.136;4.500;2023-07-29T01:51:07;6.90;;;2.75;;
72856;SDS011;62742;52.136;4.500;2023-07-29T01:53:36;9.27;;;3.20;;
72856;SDS011;62742;52.136;4.500;2023-07-29T01:56:03;8.18;;;3.17;;
72856;SDS011;62742;52.136;4.500;2023-07-29T01:58:29;8.10;;;2.85;;
72856;SDS011;62742;52.136;4.500;2023-07-29T02:00:56;6.88;;;2.90;;
72856;SDS011;62742;52.136;4.500;2023-07-29T02:03:22;8.48;;;3.10;;
72856;SDS011;62742;52.136;4.500;2023-07-29T02:05:49;9.48;;;3.25;;
72856;SDS011;62742;52.136;4.500;2023-07-29T02:08:15;8.25;;;3.40;;
72856;SDS011;62742;52.136;4.500;2023-07-29T02:10:42;8.90;;;3.33;;
72856;SDS011;62742;52.136;4.500;2023-07-29T02:13:11;10.00;;;3.92;;
72856;SDS011;62742;52.136;4.500;2023-07-29T02:15:38;8.90;;;2.92;;
72856;SDS011;62742;52.136;4.500;2023-07-29T02:18:05;7.95;;;2.90;;
72856;SDS011;62742;52.136;4.500;2023-07-29T02:20:33;9.48;;;3.50;;
72856;SDS011;62742;52.136;4.500;2023-07-29T02:22:59;9.88;;;3.60;;
72856;SDS011;62742;52.136;4.500;2023-07-29T02:25:26;11.32;;;3.50;;
72856;SDS011;62742;52.136;4.500;2023-07-29T02:27:52;10.25;;;3.45;;
72856;SDS011;62742;52.136;4.500;2023-07-29T02:30:20;8.93;;;3.42;;
72856;SDS011;62742;52.136;4.500;2023-07-29T02:32:47;9.02;;;3.72;;
72856;SDS011;62742;52.136;4.500;2023-07-29T02:35:13;7.35;;;3.40;;
72856;SDS011;62742;52.136;4.500;2023-07-29T02:37:40;9.10;;;3.92;;
72856;SDS011;62742;52.136;4.500;2023-07-29T02:40:06;7.60;;;3.25;;
72856;SDS011;62742;52.136;4.500;2023-07-29T02:42:34;8.45;;;3.63;;
72856;SDS011;62742;52.136;4.500;2023-07-29T02:45:02;11.02;;;3.65;;
72856;SDS011;62742;52.136;4.500;2023-07-29T02:47:29;8.88;;;3.60;;
72856;SDS011;62742;52.136;4.500;2023-07-29T02:49:55;8.20;;;3.50;;
72856;SDS011;62742;52.136;4.500;2023-07-29T02:52:22;10.95;;;3.85;;
72856;SDS011;62742;52.136;4.500;2023-07-29T02:54:48;9.25;;;3.67;;
72856;SDS011;62742;52.136;4.500;2023-07-29T02:57:15;9.82;;;3.42;;
72856;SDS011;62742;52.136;4.500;2023-07-29T02:59:43;10.07;;;3.03;;
72856;SDS011;62742;52.136;4.500;2023-07-29T03:02:09;11.80;;;3.75;;
72856;SDS011;62742;52.136;4.500;2023-07-29T03:04:36;8.68;;;3.50;;
72856;SDS011;62742;52.136;4.500;2023-07-29T03:07:02;8.02;;;3.38;;
72856;SDS011;62742;52.136;4.500;2023-07-29T03:09:29;10.02;;;3.35;;
72856;SDS011;62742;52.136;4.500;2023-07-29T03:11:56;11.07;;;3.22;;
72856;SDS011;62742;52.136;4.500;2023-07-29T03:14:22;9.23;;;3.42;;
72856;SDS011;62742;52.136;4.500;2023-07-29T03:16:49;9.88;;;3.97;;
72856;SDS011;62742;52.136;4.500;2023-07-29T03:19:15;10.13;;;4.18;;
72856;SDS011;62742;52.136;4.500;2023-07-29T03:21:42;9.00;;;3.90;;
72856;SDS011;62742;52.136;4.500;2023-07-29T03:24:10;8.43;;;3.50;;
72856;SDS011;62742;52.136;4.500;2023-07-29T03:26:36;11.75;;;3.90;;
72856;SDS011;62742;52.136;4.500;2023-07-29T03:29:03;9.15;;;3.85;;
72856;SDS011;62742;52.136;4.500;2023-07-29T03:31:29;9.45;;;3.95;;
72856;SDS011;62742;52.136;4.500;2023-07-29T03:33:55;12.73;;;3.83;;
72856;SDS011;62742;52.136;4.500;2023-07-29T03:36:22;14.60;;;4.68;;
72856;SDS011;62742;52.136;4.500;2023-07-29T03:38:51;15.00;;;4.55;;
72856;SDS011;62742;52.136;4.500;2023-07-29T03:41:18;8.68;;;4.00;;
72856;SDS011;62742;52.136;4.500;2023-07-29T03:43:44;7.60;;;3.47;;
72856;SDS011;62742;52.136;4.500;2023-07-29T03:46:10;10.60;;;3.92;;
72856;SDS011;62742;52.136;4.500;2023-07-29T03:48:37;6.75;;;3.40;;
72856;SDS011;62742;52.136;4.500;2023-07-29T03:51:03;7.85;;;3.50;;
72856;SDS011;62742;52.136;4.500;2023-07-29T03:53:30;10.95;;;4.00;;
72856;SDS011;62742;52.136;4.500;2023-07-29T03:55:56;9.43;;;3.58;;
72856;SDS011;62742;52.136;4.500;2023-07-29T03:58:23;9.77;;;4.13;;
72856;SDS011;62742;52.136;4.500;2023-07-29T04:00:49;8.18;;;3.60;;
72856;SDS011;62742;52.136;4.500;2023-07-29T04:03:16;10.90;;;3.70;;
72856;SDS011;62742;52.136;4.500;2023-07-29T04:05:45;11.10;;;3.90;;
72856;SDS011;62742;52.136;4.500;2023-07-29T04:08:12;7.93;;;3.38;;
72856;SDS011;62742;52.136;4.500;2023-07-29T04:10:38;9.05;;;3.75;;
72856;SDS011;62742;52.136;4.500;2023-07-29T04:13:06;11.23;;;4.35;;
72856;SDS011;62742;52.136;4.500;2023-07-29T04:15:32;8.68;;;3.67;;
72856;SDS011;62742;52.136;4.500;2023-07-29T04:17:59;11.43;;;4.13;;
72856;SDS011;62742;52.136;4.500;2023-07-29T04:20:26;9.73;;;3.78;;
72856;SDS011;62742;52.136;4.500;2023-07-29T04:22:52;11.18;;;3.72;;
72856;SDS011;62742;52.136;4.500;2023-07-29T04:25:18;11.70;;;4.57;;
72856;SDS011;62742;52.136;4.500;2023-07-29T04:27:45;8.77;;;4.00;;
72856;SDS011;62742;52.136;4.500;2023-07-29T04:30:11;9.40;;;3.38;;
72856;SDS011;62742;52.136;4.500;2023-07-29T04:32:38;11.90;;;4.18;;
72856;SDS011;62742;52.136;4.500;2023-07-29T04:35:04;12.05;;;4.20;;
72856;SDS011;62742;52.136;4.500;2023-07-29T04:37:31;11.65;;;4.20;;
72856;SDS011;62742;52.136;4.500;2023-07-29T04:39:58;11.95;;;4.25;;
72856;SDS011;62742;52.136;4.500;2023-07-29T04:42:24;10.90;;;4.40;;
72856;SDS011;62742;52.136;4.500;2023-07-29T04:44:51;11.10;;;4.35;;
72856;SDS011;62742;52.136;4.500;2023-07-29T04:47:17;12.32;;;4.30;;
72856;SDS011;62742;52.136;4.500;2023-07-29T04:49:43;10.30;;;4.60;;
72856;SDS011;62742;52.136;4.500;2023-07-29T04:52:10;11.70;;;4.60;;
72856;SDS011;62742;52.136;4.500;2023-07-29T04:54:36;11.07;;;4.78;;
72856;SDS011;62742;52.136;4.500;2023-07-29T04:57:03;10.90;;;5.25;;
72856;SDS011;62742;52.136;4.500;2023-07-29T04:59:30;12.80;;;5.40;;
72856;SDS011;62742;52.136;4.500;2023-07-29T05:01:57;10.55;;;4.93;;
72856;SDS011;62742;52.136;4.500;2023-07-29T05:04:23;14.30;;;5.20;;
72856;SDS011;62742;52.136;4.500;2023-07-29T05:06:50;10.50;;;5.28;;
72856;SDS011;62742;52.136;4.500;2023-07-29T05:09:17;12.15;;;4.85;;
72856;SDS011;62742;52.136;4.500;2023-07-29T05:11:45;12.95;;;5.05;;
72856;SDS011;62742;52.136;4.500;2023-07-29T05:14:13;11.43;;;4.90;;
72856;SDS011;62742;52.136;4.500;2023-07-29T05:16:40;12.23;;;4.90;;
72856;SDS011;62742;52.136;4.500;2023-07-29T05:19:08;14.02;;;5.68;;
72856;SDS011;62742;52.136;4.500;2023-07-29T05:21:35;12.65;;;5.22;;
72856;SDS011;62742;52.136;4.500;2023-07-29T05:24:01;12.77;;;4.93;;
72856;SDS011;62742;52.136;4.500;2023-07-29T05:26:28;13.25;;;5.00;;
72856;SDS011;62742;52.136;4.500;2023-07-29T05:28:54;11.05;;;4.70;;
72856;SDS011;62742;52.136;4.500;2023-07-29T05:31:21;11.00;;;4.93;;
72856;SDS011;62742;52.136;4.500;2023-07-29T05:33:48;14.15;;;4.93;;
72856;SDS011;62742;52.136;4.500;2023-07-29T05:36:15;11.80;;;4.82;;
72856;SDS011;62742;52.136;4.500;2023-07-29T05:38:41;12.93;;;4.57;;
72856;SDS011;62742;52.136;4.500;2023-07-29T05:41:08;9.07;;;4.10;;
72856;SDS011;62742;52.136;4.500;2023-07-29T05:43:35;11.18;;;4.70;;
72856;SDS011;62742;52.136;4.500;2023-07-29T05:46:03;14.40;;;4.60;;
72856;SDS011;62742;52.136;4.500;2023-07-29T05:48:29;16.73;;;4.70;;
72856;SDS011;62742;52.136;4.500;2023-07-29T05:50:56;16.98;;;5.10;;
72856;SDS011;62742;52.136;4.500;2023-07-29T05:53:22;13.20;;;4.57;;
72856;SDS011;62742;52.136;4.500;2023-07-29T05:55:48;10.82;;;4.70;;
72856;SDS011;62742;52.136;4.500;2023-07-29T05:58:15;12.70;;;5.30;;
72856;SDS011;62742;52.136;4.500;2023-07-29T06:00:41;11.05;;;4.70;;
72856;SDS011;62742;52.136;4.500;2023-07-29T06:03:08;11.20;;;4.88;;
72856;SDS011;62742;52.136;4.500;2023-07-29T06:05:34;11.85;;;4.75;;
72856;SDS011;62742;52.136;4.500;2023-07-29T06:08:01;10.77;;;4.80;;
72856;SDS011;62742;52.136;4.500;2023-07-29T06:10:28;11.70;;;4.30;;
72856;SDS011;62742;52.136;4.500;2023-07-29T06:12:54;11.38;;;4.50;;
72856;SDS011;62742;52.136;4.500;2023-07-29T06:15:20;11.25;;;4.45;;
72856;SDS011;62742;52.136;4.500;2023-07-29T06:17:48;15.05;;;4.63;;
72856;SDS011;62742;52.136;4.500;2023-07-29T06:20:15;11.23;;;4.15;;
72856;SDS011;62742;52.136;4.500;2023-07-29T06:22:42;9.75;;;4.10;;
72856;SDS011;62742;52.136;4.500;2023-07-29T06:25:09;9.75;;;3.65;;
72856;SDS011;62742;52.136;4.500;2023-07-29T06:27:35;13.02;;;4.47;;
72856;SDS011;62742;52.136;4.500;2023-07-29T06:30:02;13.52;;;4.57;;
72856;SDS011;62742;52.136;4.500;2023-07-29T06:32:28;9.73;;;3.88;;
72856;SDS011;62742;52.136;4.500;2023-07-29T06:34:55;10.43;;;3.85;;
72856;SDS011;62742;52.136;4.500;2023-07-29T06:37:21;9.25;;;3.33;;
72856;SDS011;62742;52.136;4.500;2023-07-29T06:39:48;7.25;;;2.63;;
72856;SDS011;62742;52.136;4.500;2023-07-29T06:42:14;9.63;;;2.85;;
72856;SDS011;62742;52.136;4.500;2023-07-29T06:44:41;7.15;;;2.28;;
72856;SDS011;62742;52.136;4.500;2023-07-29T06:47:08;8.60;;;2.40;;
72856;SDS011;62742;52.136;4.500;2023-07-29T06:49:34;9.88;;;2.10;;
72856;SDS011;62742;52.136;4.500;2023-07-29T06:52:01;9.57;;;2.35;;
72856;SDS011;62742;52.136;4.500;2023-07-29T06:54:27;8.75;;;2.20;;
72856;SDS011;62742;52.136;4.500;2023-07-29T06:56:54;8.18;;;2.03;;
72856;SDS011;62742;52.136;4.500;2023-07-29T06:59:20;6.90;;;2.00;;
72856;SDS011;62742;52.136;4.500;2023-07-29T07:01:47;6.88;;;2.05;;
72856;SDS011;62742;52.136;4.500;2023-07-29T07:04:13;11.18;;;2.40;;
72856;SDS011;62742;52.136;4.500;2023-07-29T07:06:39;7.50;;;2.00;;
72856;SDS011;62742;52.136;4.500;2023-07-29T07:09:06;7.78;;;1.95;;
72856;SDS011;62742;52.136;4.500;2023-07-29T07:11:32;5.55;;;1.63;;
72856;SDS011;62742;52.136;4.500;2023-07-29T07:14:01;6.70;;;1.80;;
72856;SDS011;62742;52.136;4.500;2023-07-29T07:16:27;7.15;;;1.63;;
72856;SDS011;62742;52.136;4.500;2023-07-29T07:18:56;7.50;;;1.83;;
72856;SDS011;62742;52.136;4.500;2023-07-29T07:21:23;8.05;;;2.00;;
72856;SDS011;62742;52.136;4.500;2023-07-29T07:23:50;8.45;;;2.17;;
72856;SDS011;62742;52.136;4.500;2023-07-29T07:26:16;4.10;;;1.75;;
72856;SDS011;62742;52.136;4.500;2023-07-29T07:28:43;7.80;;;2.00;;
72856;SDS011;62742;52.136;4.500;2023-07-29T07:31:09;5.85;;;1.60;;
72856;SDS011;62742;52.136;4.500;2023-07-29T07:33:36;7.30;;;1.80;;
72856;SDS011;62742;52.136;4.500;2023-07-29T07:36:02;7.93;;;1.90;;
72856;SDS011;62742;52.136;4.500;2023-07-29T07:38:29;6.90;;;1.58;;
72856;SDS011;62742;52.136;4.500;2023-07-29T07:40:56;5.10;;;1.70;;
72856;SDS011;62742;52.136;4.500;2023-07-29T07:43:23;7.35;;;1.73;;
72856;SDS011;62742;52.136;4.500;2023-07-29T07:45:51;4.90;;;1.85;;
72856;SDS011;62742;52.136;4.500;2023-07-29T07:48:23;5.68;;;1.65;;
72856;SDS011;62742;52.136;4.500;2023-07-29T07:50:50;5.10;;;1.80;;
72856;SDS011;62742;52.136;4.500;2023-07-29T07:53:16;5.47;;;1.77;;
72856;SDS011;62742;52.136;4.500;2023-07-29T07:55:43;8.13;;;2.28;;
72856;SDS011;62742;52.136;4.500;2023-07-29T07:58:09;7.55;;;1.80;;
72856;SDS011;62742;52.136;4.500;2023-07-29T08:00:36;9.40;;;2.22;;
72856;SDS011;62742;52.136;4.500;2023-07-29T08:03:02;5.25;;;1.80;;
72856;SDS011;62742;52.136;4.500;2023-07-29T08:05:29;6.25;;;2.00;;
72856;SDS011;62742;52.136;4.500;2023-07-29T08:07:57;6.50;;;2.10;;
72856;SDS011;62742;52.136;4.500;2023-07-29T08:10:24;8.98;;;2.08;;
72856;SDS011;62742;52.136;4.500;2023-07-29T08:12:50;7.30;;;2.10;;
72856;SDS011;62742;52.136;4.500;2023-07-29T08:15:16;8.43;;;2.17;;
72856;SDS011;62742;52.136;4.500;2023-07-29T08:17:43;7.53;;;2.10;;
72856;SDS011;62742;52.136;4.500;2023-07-29T08:20:11;6.43;;;2.00;;
72856;SDS011;62742;52.136;4.500;2023-07-29T08:22:37;8.30;;;2.35;;
72856;SDS011;62742;52.136;4.500;2023-07-29T08:25:04;6.70;;;2.05;;
72856;SDS011;62742;52.136;4.500;2023-07-29T08:27:33;7.35;;;2.10;;
72856;SDS011;62742;52.136;4.500;2023-07-29T08:30:00;10.00;;;2.30;;
72856;SDS011;62742;52.136;4.500;2023-07-29T08:32:27;9.00;;;2.40;;
72856;SDS011;62742;52.136;4.500;2023-07-29T08:34:53;7.70;;;2.25;;
72856;SDS011;62742;52.136;4.500;2023-07-29T08:37:20;5.43;;;1.73;;
72856;SDS011;62742;52.136;4.500;2023-07-29T08:39:46;4.95;;;1.88;;
72856;SDS011;62742;52.136;4.500;2023-07-29T08:42:12;6.30;;;1.80;;
72856;SDS011;62742;52.136;4.500;2023-07-29T08:44:45;6.47;;;1.95;;
72856;SDS011;62742;52.136;4.500;2023-07-29T08:47:16;5.90;;;1.85;;
72856;SDS011;62742;52.136;4.500;2023-07-29T08:49:45;4.93;;;1.80;;
72856;SDS011;62742;52.136;4.500;2023-07-29T08:52:14;6.88;;;1.95;;
72856;SDS011;62742;52.136;4.500;2023-07-29T08:54:41;6.47;;;1.80;;
72856;SDS011;62742;52.136;4.500;2023-07-29T08:57:08;5.38;;;1.80;;
72856;SDS011;62742;52.136;4.500;2023-07-29T08:59:36;6.30;;;1.75;;
72856;SDS011;62742;52.136;4.500;2023-07-29T09:02:03;7.53;;;1.85;;
72856;SDS011;62742;52.136;4.500;2023-07-29T09:04:30;8.05;;;1.90;;
72856;SDS011;62742;52.136;4.500;2023-07-29T09:06:57;9.55;;;2.15;;
72856;SDS011;62742;52.136;4.500;2023-07-29T09:09:25;5.47;;;2.08;;
72856;SDS011;62742;52.136;4.500;2023-07-29T09:11:51;8.00;;;2.22;;
72856;SDS011;62742;52.136;4.500;2023-07-29T09:14:19;9.95;;;2.75;;
72856;SDS011;62742;52.136;4.500;2023-07-29T09:16:46;7.95;;;2.45;;
72856;SDS011;62742;52.136;4.500;2023-07-29T09:19:12;5.88;;;1.80;;
72856;SDS011;62742;52.136;4.500;2023-07-29T09:21:39;6.53;;;1.88;;
72856;SDS011;62742;52.136;4.500;2023-07-29T09:24:07;9.02;;;2.17;;
72856;SDS011;62742;52.136;4.500;2023-07-29T09:26:34;10.68;;;2.22;;
72856;SDS011;62742;52.136;4.500;2023-07-29T09:29:02;8.82;;;2.00;;
72856;SDS011;62742;52.136;4.500;2023-07-29T09:31:29;8.80;;;2.83;;
72856;SDS011;62742;52.136;4.500;2023-07-29T09:33:57;7.57;;;2.10;;
72856;SDS011;62742;52.136;4.500;2023-07-29T09:36:25;7.07;;;2.10;;
72856;SDS011;62742;52.136;4.500;2023-07-29T09:38:56;8.40;;;2.05;;
72856;SDS011;62742;52.136;4.500;2023-07-29T09:41:24;6.93;;;2.33;;
72856;SDS011;62742;52.136;4.500;2023-07-29T09:43:56;7.53;;;1.90;;
72856;SDS011;62742;52.136;4.500;2023-07-29T09:46:25;5.97;;;1.80;;
72856;SDS011;62742;52.136;4.500;2023-07-29T09:49:01;5.28;;;1.90;;
72856;SDS011;62742;52.136;4.500;2023-07-29T09:51:36;11.25;;;2.00;;
72856;SDS011;62742;52.136;4.500;2023-07-29T09:54:07;7.55;;;1.83;;
72856;SDS011;62742;52.136;4.500;2023-07-29T09:56:39;5.50;;;2.10;;
72856;SDS011;62742;52.136;4.500;2023-07-29T09:59:09;6.18;;;2.08;;
72856;SDS011;62742;52.136;4.500;2023-07-29T10:01:37;5.97;;;1.98;;
72856;SDS011;62742;52.136;4.500;2023-07-29T10:04:05;5.85;;;1.80;;
72856;SDS011;62742;52.136;4.500;2023-07-29T10:06:32;7.70;;;2.28;;
72856;SDS011;62742;52.136;4.500;2023-07-29T10:09:00;7.30;;;2.03;;
72856;SDS011;62742;52.136;4.500;2023-07-29T10:11:27;7.25;;;2.00;;
72856;SDS011;62742;52.136;4.500;2023-07-29T10:13:55;11.65;;;2.20;;
72856;SDS011;62742;52.136;4.500;2023-07-29T10:16:26;7.55;;;2.53;;
72856;SDS011;62742;52.136;4.500;2023-07-29T10:18:53;6.50;;;2.20;;
72856;SDS011;62742;52.136;4.500;2023-07-29T10:21:21;6.25;;;2.55;;
72856;SDS011;62742;52.136;4.500;2023-07-29T10:23:49;6.40;;;2.00;;
72856;SDS011;62742;52.136;4.500;2023-07-29T10:26:23;4.22;;;1.88;;
72856;SDS011;62742;52.136;4.500;2023-07-29T10:28:52;5.65;;;2.20;;
72856;SDS011;62742;52.136;4.500;2023-07-29T10:31:26;5.72;;;2.10;;
72856;SDS011;62742;52.136;4.500;2023-07-29T10:33:55;5.03;;;2.33;;
72856;SDS011;62742;52.136;4.500;2023-07-29T10:36:23;8.18;;;2.45;;
72856;SDS011;62742;52.136;4.500;2023-07-29T10:38:51;5.90;;;2.10;;
72856;SDS011;62742;52.136;4.500;2023-07-29T10:41:18;6.65;;;2.10;;
72856;SDS011;62742;52.136;4.500;2023-07-29T10:43:44;4.45;;;1.48;;
72856;SDS011;62742;52.136;4.500;2023-07-29T10:46:15;3.25;;;1.23;;
72856;SDS011;62742;52.136;4.500;2023-07-29T10:51:27;3.30;;;1.20;;
72856;SDS011;62742;52.136;4.500;2023-07-29T10:54:09;4.57;;;1.25;;
72856;SDS011;62742;52.136;4.500;2023-07-29T10:56:46;4.05;;;0.93;;
72856;SDS011;62742;52.136;4.500;2023-07-29T11:01:50;5.03;;;1.10;;
72856;SDS011;62742;52.136;4.500;2023-07-29T11:04:26;4.15;;;0.80;;
72856;SDS011;62742;52.136;4.500;2023-07-29T11:12:34;6.00;;;1.13;;
72856;SDS011;62742;52.136;4.500;2023-07-29T11:15:23;3.05;;;1.10;;
72856;SDS011;62742;52.136;4.500;2023-07-29T11:18:00;3.33;;;1.23;;
72856;SDS011;62742;52.136;4.500;2023-07-29T11:20:48;2.75;;;1.05;;
72856;SDS011;62742;52.136;4.500;2023-07-29T11:23:15;4.70;;;1.10;;
72856;SDS011;62742;52.136;4.500;2023-07-29T11:25:44;2.90;;;1.17;;
72856;SDS011;62742;52.136;4.500;2023-07-29T11:28:11;3.60;;;1.30;;
72856;SDS011;62742;52.136;4.500;2023-07-29T11:30:41;4.60;;;1.10;;
72856;SDS011;62742;52.136;4.500;2023-07-29T11:33:09;2.03;;;1.13;;
72856;SDS011;62742;52.136;4.500;2023-07-29T11:35:39;3.83;;;1.10;;
72856;SDS011;62742;52.136;4.500;2023-07-29T11:38:14;4.28;;;1.30;;
72856;SDS011;62742;52.136;4.500;2023-07-29T11:43:47;3.78;;;1.15;;
72856;SDS011;62742;52.136;4.500;2023-07-29T11:46:24;3.97;;;1.70;;
72856;SDS011;62742;52.136;4.500;2023-07-29T11:48:53;3.72;;;1.60;;
72856;SDS011;62742;52.136;4.500;2023-07-29T11:51:27;3.63;;;1.60;;
72856;SDS011;62742;52.136;4.500;2023-07-29T11:53:57;3.50;;;1.50;;
72856;SDS011;62742;52.136;4.500;2023-07-29T11:56:24;4.55;;;1.60;;
72856;SDS011;62742;52.136;4.500;2023-07-29T11:58:54;5.40;;;1.88;;
72856;SDS011;62742;52.136;4.500;2023-07-29T12:01:22;4.00;;;1.35;;
72856;SDS011;62742;52.136;4.500;2023-07-29T12:03:50;3.97;;;1.48;;
72856;SDS011;62742;52.136;4.500;2023-07-29T12:06:23;6.43;;;1.50;;
72856;SDS011;62742;52.136;4.500;2023-07-29T12:08:54;7.30;;;1.58;;
72856;SDS011;62742;52.136;4.500;2023-07-29T12:11:21;3.72;;;1.33;;
72856;SDS011;62742;52.136;4.500;2023-07-29T12:13:48;4.22;;;1.48;;
72856;SDS011;62742;52.136;4.500;2023-07-29T12:16:17;4.03;;;1.42;;
72856;SDS011;62742;52.136;4.500;2023-07-29T12:18:44;6.65;;;1.45;;
72856;SDS011;62742;52.136;4.500;2023-07-29T12:21:11;3.97;;;1.30;;
72856;SDS011;62742;52.136;4.500;2023-07-29T12:23:40;2.97;;;1.67;;
72856;SDS011;62742;52.136;4.500;2023-07-29T12:26:07;5.60;;;1.50;;
72856;SDS011;62742;52.136;4.500;2023-07-29T12:28:33;4.45;;;1.50;;
72856;SDS011;62742;52.136;4.500;2023-07-29T12:31:00;6.32;;;1.80;;
72856;SDS011;62742;52.136;4.500;2023-07-29T12:33:36;5.88;;;1.40;;
72856;SDS011;62742;52.136;4.500;2023-07-29T12:36:07;6.10;;;1.40;;
72856;SDS011;62742;52.136;4.500;2023-07-29T12:38:36;4.88;;;1.60;;
72856;SDS011;62742;52.136;4.500;2023-07-29T12:41:05;5.85;;;1.40;;
72856;SDS011;62742;52.136;4.500;2023-07-29T12:43:37;4.60;;;1.42;;
72856;SDS011;62742;52.136;4.500;2023-07-29T12:46:03;3.80;;;1.35;;
72856;SDS011;62742;52.136;4.500;2023-07-29T12:48:30;3.05;;;1.45;;
72856;SDS011;62742;52.136;4.500;2023-07-29T12:50:57;6.00;;;1.83;;
72856;SDS011;62742;52.136;4.500;2023-07-29T12:53:34;3.63;;;1.00;;
72856;SDS011;62742;52.136;4.500;2023-07-29T12:56:05;4.13;;;1.20;;
72856;SDS011;62742;52.136;4.500;2023-07-29T12:58:44;5.00;;;1.25;;
72856;SDS011;62742;52.136;4.500;2023-07-29T13:01:11;5.07;;;1.10;;
72856;SDS011;62742;52.136;4.500;2023-07-29T13:03:44;3.95;;;1.33;;
72856;SDS011;62742;52.136;4.500;2023-07-29T13:06:12;4.47;;;1.33;;
72856;SDS011;62742;52.136;4.500;2023-07-29T13:08:39;3.50;;;1.30;;
72856;SDS011;62742;52.136;4.500;2023-07-29T13:11:05;6.53;;;1.40;;
72856;SDS011;62742;52.136;4.500;2023-07-29T13:13:32;4.10;;;1.27;;
72856;SDS011;62742;52.136;4.500;2023-07-29T13:16:02;3.97;;;1.55;;
72856;SDS011;62742;52.136;4.500;2023-07-29T13:18:32;2.70;;;1.05;;
72856;SDS011;62742;52.136;4.500;2023-07-29T13:20:59;2.63;;;1.10;;
72856;SDS011;62742;52.136;4.500;2023-07-29T13:23:26;3.25;;;1.27;;
72856;SDS011;62742;52.136;4.500;2023-07-29T13:25:55;3.97;;;1.27;;
72856;SDS011;62742;52.136;4.500;2023-07-29T13:28:23;3.13;;;1.60;;
72856;SDS011;62742;52.136;4.500;2023-07-29T13:30:51;3.22;;;1.40;;
72856;SDS011;62742;52.136;4.500;2023-07-29T13:33:20;4.05;;;1.30;;
72856;SDS011;62742;52.136;4.500;2023-07-29T13:35:46;4.55;;;1.10;;
72856;SDS011;62742;52.136;4.500;2023-07-29T13:41:07;5.80;;;1.30;;
72856;SDS011;62742;52.136;4.500;2023-07-29T13:43:34;2.85;;;1.10;;
72856;SDS011;62742;52.136;4.500;2023-07-29T13:46:00;1.95;;;1.10;;
72856;SDS011;62742;52.136;4.500;2023-07-29T13:48:27;3.20;;;1.13;;
72856;SDS011;62742;52.136;4.500;2023-07-29T13:50:53;1.85;;;1.00;;
72856;SDS011;62742;52.136;4.500;2023-07-29T13:53:20;2.72;;;1.02;;
72856;SDS011;62742;52.136;4.500;2023-07-29T13:55:47;4.13;;;1.25;;
72856;SDS011;62742;52.136;4.500;2023-07-29T13:58:13;4.93;;;1.30;;
72856;SDS011;62742;52.136;4.500;2023-07-29T14:00:39;3.50;;;1.10;;
72856;SDS011;62742;52.136;4.500;2023-07-29T14:03:06;4.35;;;1.30;;
72856;SDS011;62742;52.136;4.500;2023-07-29T14:05:32;4.55;;;1.30;;
72856;SDS011;62742;52.136;4.500;2023-07-29T14:07:59;4.50;;;1.55;;
72856;SDS011;62742;52.136;4.500;2023-07-29T14:10:25;3.15;;;1.50;;
72856;SDS011;62742;52.136;4.500;2023-07-29T14:12:53;3.05;;;1.40;;
72856;SDS011;62742;52.136;4.500;2023-07-29T14:15:20;6.22;;;2.17;;
72856;SDS011;62742;52.136;4.500;2023-07-29T14:17:47;6.90;;;1.92;;
72856;SDS011;62742;52.136;4.500;2023-07-29T14:20:13;6.15;;;2.05;;
72856;SDS011;62742;52.136;4.500;2023-07-29T14:22:40;6.50;;;2.00;;
72856;SDS011;62742;52.136;4.500;2023-07-29T14:25:06;4.35;;;1.83;;
72856;SDS011;62742;52.136;4.500;2023-07-29T14:27:33;4.38;;;1.20;;
72856;SDS011;62742;52.136;4.500;2023-07-29T14:30:00;5.45;;;1.60;;
72856;SDS011;62742;52.136;4.500;2023-07-29T14:32:26;4.85;;;1.30;;
72856;SDS011;62742;52.136;4.500;2023-07-29T14:34:53;4.70;;;1.52;;
72856;SDS011;62742;52.136;4.500;2023-07-29T14:37:19;3.35;;;1.30;;
72856;SDS011;62742;52.136;4.500;2023-07-29T14:39:46;5.75;;;1.50;;
72856;SDS011;62742;52.136;4.500;2023-07-29T14:42:13;5.35;;;1.42;;
72856;SDS011;62742;52.136;4.500;2023-07-29T14:44:40;5.43;;;1.48;;
72856;SDS011;62742;52.136;4.500;2023-07-29T14:47:07;5.35;;;1.40;;
72856;SDS011;62742;52.136;4.500;2023-07-29T14:49:35;4.32;;;1.30;;
72856;SDS011;62742;52.136;4.500;2023-07-29T14:52:02;2.83;;;1.58;;
72856;SDS011;62742;52.136;4.500;2023-07-29T14:54:28;2.70;;;1.40;;
72856;SDS011;62742;52.136;4.500;2023-07-29T14:56:56;3.65;;;1.60;;
72856;SDS011;62742;52.136;4.500;2023-07-29T14:59:22;5.18;;;1.38;;
72856;SDS011;62742;52.136;4.500;2023-07-29T15:01:49;5.63;;;1.50;;
72856;SDS011;62742;52.136;4.500;2023-07-29T15:04:15;5.43;;;1.52;;
72856;SDS011;62742;52.136;4.500;2023-07-29T15:06:42;5.22;;;1.70;;
72856;SDS011;62742;52.136;4.500;2023-07-29T15:09:08;6.90;;;1.80;;
72856;SDS011;62742;52.136;4.500;2023-07-29T15:11:35;5.13;;;1.70;;
72856;SDS011;62742;52.136;4.500;2023-07-29T15:14:02;4.30;;;1.70;;
72856;SDS011;62742;52.136;4.500;2023-07-29T15:16:29;3.28;;;1.45;;
72856;SDS011;62742;52.136;4.500;2023-07-29T15:18:55;5.43;;;1.70;;